Time;durP1;ratioP1;P1;durP2;ratioP2;P2;SDS_P1;SDS_P2;PMS_P1;PMS_P2;Temp;Humidity;BMP_temperature;BMP_pressure;BME280_temperature;BME280_humidity;BME280_pressure;Samples;Min_cycle;Max_cycle;Signal;HPM_P1;HPM_P2
2022/05/06 00:02:15;;;;;;;34.65;23.10;;;15.20;84.20;;;;;;5054573;28;20483;-73
2022/05/06 00:04:43;;;;;;;45.35;26.58;;;15.20;83.80;;;;;;5054412;28;20029;-73
2022/05/06 00:07:11;;;;;;;35.80;24.77;;;15.30;83.30;;;;;;5054474;28;20032;-73
2022/05/06 00:09:37;;;;;;;33.75;22.48;;;15.50;82.90;;;;;;5053997;28;20029;-73
2022/05/06 00:12:03;;;;;;;39.90;27.10;;;15.60;82.40;;;;;;5054370;28;20051;-73
2022/05/06 00:14:29;;;;;;;38.42;24.38;;;15.60;81.90;;;;;;5054462;28;20476;-73
2022/05/06 00:16:54;;;;;;;31.25;20.85;;;15.60;82.30;;;;;;5054483;28;20082;-73
2022/05/06 00:19:20;;;;;;;41.13;28.55;;;15.60;82.50;;;;;;5054170;28;20025;-73
2022/05/06 00:21:45;;;;;;;32.88;23.58;;;15.50;82.60;;;;;;5054311;28;20052;-73
2022/05/06 00:24:11;;;;;;;34.22;22.35;;;15.50;82.80;;;;;;5054074;28;20055;-73
2022/05/06 00:26:37;;;;;;;40.05;27.13;;;15.60;82.40;;;;;;5053794;28;20021;-72
2022/05/06 00:29:02;;;;;;;45.28;28.92;;;15.50;82.50;;;;;;5053933;28;20036;-72
2022/05/06 00:31:29;;;;;;;44.33;29.60;;;15.50;82.90;;;;;;5054283;28;20033;-71
2022/05/06 00:33:54;;;;;;;47.30;30.38;;;15.50;83.30;;;;;;5053899;28;20376;-72
2022/05/06 00:36:21;;;;;;;43.42;28.88;;;15.50;83.50;;;;;;5053641;28;20078;-72
2022/05/06 00:38:46;;;;;;;36.83;26.30;;;15.50;83.60;;;;;;5053922;28;20025;-72
2022/05/06 00:41:12;;;;;;;40.97;27.55;;;15.50;83.60;;;;;;5053795;28;20036;-72
2022/05/06 00:43:41;;;;;;;39.80;26.42;;;15.60;83.50;;;;;;5054031;28;20053;-72
2022/05/06 00:46:11;;;;;;;43.08;26.20;;;15.60;83.40;;;;;;5053635;28;20037;-72
2022/05/06 00:48:37;;;;;;;39.67;25.67;;;15.60;83.10;;;;;;5054030;28;20113;-72
2022/05/06 00:51:04;;;;;;;37.13;25.08;;;15.70;83.00;;;;;;5053484;28;20502;-72
2022/05/06 00:53:31;;;;;;;38.10;25.38;;;15.80;82.80;;;;;;5053625;28;20380;-72
2022/05/06 00:55:56;;;;;;;33.97;22.95;;;15.90;82.70;;;;;;5053574;28;20418;-72
2022/05/06 00:58:29;;;;;;;29.00;20.13;;;15.90;82.40;;;;;;5053634;28;20025;-72
2022/05/06 01:00:54;;;;;;;47.33;29.98;;;15.90;82.20;;;;;;5053838;28;20021;-72
2022/05/06 01:03:20;;;;;;;49.50;31.85;;;16.00;82.30;;;;;;5053355;28;20560;-72
2022/05/06 01:05:47;;;;;;;49.60;32.97;;;15.90;82.90;;;;;;5053409;28;20041;-72
2022/05/06 01:08:12;;;;;;;38.97;27.05;;;15.60;83.90;;;;;;5053106;28;20461;-72
2022/05/06 01:10:38;;;;;;;40.78;25.08;;;15.30;84.70;;;;;;5053557;28;20044;-72
2022/05/06 01:13:04;;;;;;;42.03;28.63;;;15.20;84.70;;;;;;5053544;28;20025;-72
2022/05/06 01:15:30;;;;;;;40.72;25.95;;;15.30;84.70;;;;;;5053521;28;20419;-72
2022/05/06 01:17:57;;;;;;;45.05;28.70;;;15.40;84.40;;;;;;5053336;28;20027;-72
2022/05/06 01:20:23;;;;;;;34.08;23.17;;;15.40;84.30;;;;;;5052336;28;20078;-72
2022/05/06 01:22:51;;;;;;;41.53;27.80;;;15.50;84.20;;;;;;5053371;28;20427;-72
2022/05/06 01:25:18;;;;;;;37.80;26.90;;;15.50;84.00;;;;;;5053407;28;20028;-72
2022/05/06 01:27:45;;;;;;;42.30;27.58;;;15.60;83.90;;;;;;5053162;28;20030;-72
2022/05/06 01:30:22;;;;;;;35.17;23.63;;;15.70;83.90;;;;;;5052940;28;20037;-72
2022/05/06 01:32:48;;;;;;;41.53;26.95;;;15.70;83.60;;;;;;5053139;28;20029;-72
2022/05/06 01:35:14;;;;;;;35.42;24.25;;;15.70;83.70;;;;;;5053342;28;20032;-72
2022/05/06 01:37:41;;;;;;;41.28;27.95;;;15.70;83.50;;;;;;5052730;28;20465;-72
2022/05/06 01:40:08;;;;;;;37.35;25.17;;;15.70;83.30;;;;;;5053317;28;20400;-72
2022/05/06 01:42:36;;;;;;;41.63;27.75;;;15.80;83.20;;;;;;5053193;28;20021;-72
2022/05/06 01:45:03;;;;;;;46.55;29.42;;;15.80;83.10;;;;;;5052935;28;20357;-72
2022/05/06 01:47:30;;;;;;;41.08;28.67;;;15.80;83.10;;;;;;5052769;28;20124;-72
2022/05/06 01:49:58;;;;;;;41.45;27.55;;;15.80;83.00;;;;;;5052885;28;20037;-72
2022/05/06 01:52:24;;;;;;;48.72;29.77;;;15.80;83.00;;;;;;5052816;28;20029;-72
2022/05/06 01:54:50;;;;;;;28.05;20.58;;;15.80;83.00;;;;;;5053192;28;20100;-72
2022/05/06 01:57:16;;;;;;;34.65;23.85;;;15.70;82.90;;;;;;5052995;28;20048;-72
2022/05/06 01:59:42;;;;;;;40.58;24.67;;;15.80;82.60;;;;;;5052877;28;20071;-72
2022/05/06 02:02:07;;;;;;;36.25;25.27;;;15.80;82.60;;;;;;5052825;28;20017;-72
2022/05/06 02:07:17;;;;;;;52.42;32.58;;;15.80;82.70;;;;;;5053008;28;20071;-72
2022/05/06 02:09:43;;;;;;;51.60;31.73;;;15.70;83.00;;;;;;5052940;28;20437;-72
2022/05/06 02:12:09;;;;;;;48.85;30.02;;;15.70;83.30;;;;;;5052754;28;20033;-72
2022/05/06 02:14:35;;;;;;;50.35;29.15;;;15.60;84.10;;;;;;5052739;28;20048;-72
2022/05/06 02:17:00;;;;;;;59.45;33.35;;;15.60;84.00;;;;;;5052867;28;20060;-72
2022/05/06 02:19:26;;;;;;;56.30;34.58;;;15.60;84.30;;;;;;5052552;28;20037;-72
2022/05/06 02:21:51;;;;;;;55.60;31.80;;;15.50;84.80;;;;;;5052804;28;20033;-72
2022/05/06 02:24:17;;;;;;;33.78;22.75;;;15.40;85.10;;;;;;5052583;28;20048;-72
2022/05/06 02:26:43;;;;;;;46.05;28.83;;;15.40;85.00;;;;;;5052664;28;20116;-72
2022/05/06 02:29:08;;;;;;;46.53;29.85;;;15.50;85.00;;;;;;5052913;28;20017;-72
2022/05/06 02:34:20;;;;;;;33.92;22.55;;;15.40;85.00;;;;;;5056566;28;20082;-72
2022/05/06 02:36:46;;;;;;;35.97;23.30;;;15.40;84.60;;;;;;5056196;28;20025;-72
2022/05/06 02:39:12;;;;;;;37.75;24.38;;;15.40;84.40;;;;;;5055931;28;20062;-72
2022/05/06 02:41:37;;;;;;;38.33;25.75;;;15.40;84.50;;;;;;5056116;28;20021;-72
2022/05/06 02:44:04;;;;;;;35.30;26.77;;;15.40;84.60;;;;;;5055997;28;20052;-72
2022/05/06 02:46:36;;;;;;;34.53;24.80;;;15.40;84.80;;;;;;5055763;28;20049;-72
2022/05/06 02:49:03;;;;;;;34.97;27.17;;;15.40;84.70;;;;;;5055978;28;20461;-72
2022/05/06 02:51:29;;;;;;;34.65;26.40;;;15.40;84.80;;;;;;5055928;28;20037;-72
2022/05/06 02:53:56;;;;;;;32.05;25.25;;;15.30;84.80;;;;;;5055871;28;20431;-72
2022/05/06 02:56:22;;;;;;;26.75;21.50;;;15.30;85.50;;;;;;5055922;28;20024;-72
2022/05/06 02:58:48;;;;;;;22.23;17.95;;;15.20;85.10;;;;;;5055590;28;20440;-72
2022/05/06 03:01:14;;;;;;;22.30;17.90;;;15.10;85.20;;;;;;5055517;28;20055;-72
2022/05/06 03:03:40;;;;;;;21.40;18.42;;;15.20;85.20;;;;;;5056064;28;20032;-72
2022/05/06 03:06:05;;;;;;;26.45;21.25;;;15.20;85.00;;;;;;5055497;28;20071;-72
2022/05/06 03:08:31;;;;;;;22.92;19.60;;;15.20;84.70;;;;;;5055854;28;20029;-72
2022/05/06 03:10:56;;;;;;;23.10;18.98;;;15.20;84.60;;;;;;5055475;28;20033;-72
2022/05/06 03:13:22;;;;;;;20.45;17.92;;;15.20;84.40;;;;;;5055713;28;20029;-72
2022/05/06 03:15:47;;;;;;;20.10;17.55;;;15.20;84.20;;;;;;5055490;28;20104;-72
2022/05/06 03:18:13;;;;;;;26.48;21.50;;;15.20;84.10;;;;;;5055734;28;20443;-72
2022/05/06 03:20:39;;;;;;;22.42;19.42;;;15.20;83.90;;;;;;5055571;28;20032;-72
2022/05/06 03:23:06;;;;;;;21.08;18.55;;;15.10;84.10;;;;;;5055355;28;20492;-72
2022/05/06 03:25:32;;;;;;;15.25;12.75;;;15.00;84.80;;;;;;5055554;28;20036;-72
2022/05/06 03:28:03;;;;;;;18.55;16.48;;;15.00;84.10;;;;;;5055152;28;20021;-72
2022/05/06 03:30:32;;;;;;;16.95;14.48;;;15.10;83.90;;;;;;5055164;28;20082;-72
2022/05/06 03:32:59;;;;;;;15.65;13.82;;;15.10;83.70;;;;;;5055341;28;20029;-72
2022/05/06 03:35:26;;;;;;;18.40;16.17;;;15.00;83.40;;;;;;5055048;28;20029;-72
2022/05/06 03:37:52;;;;;;;19.58;17.48;;;15.10;83.30;;;;;;5055293;28;20045;-72
2022/05/06 03:40:18;;;;;;;20.00;17.27;;;15.10;83.10;;;;;;5054924;28;20049;-72
2022/05/06 03:42:44;;;;;;;19.70;17.27;;;15.00;83.10;;;;;;5054515;28;20029;-72
2022/05/06 03:45:10;;;;;;;16.85;15.00;;;14.90;83.10;;;;;;5054223;28;20024;-72
2022/05/06 03:47:36;;;;;;;19.67;17.50;;;14.90;83.10;;;;;;5054786;28;20075;-72
2022/05/06 03:53:07;;;;;;;20.88;18.17;;;14.80;83.00;;;;;;5032923;28;20033;-72
2022/05/06 03:55:33;;;;;;;20.88;18.67;;;14.80;83.10;;;;;;5032502;28;20493;-72
2022/05/06 03:57:58;;;;;;;18.10;16.23;;;14.60;83.40;;;;;;5042861;28;20041;-72
2022/05/06 04:00:26;;;;;;;16.60;14.85;;;14.40;84.00;;;;;;5054716;28;20491;-72
2022/05/06 04:02:52;;;;;;;14.07;12.68;;;14.30;84.30;;;;;;5054636;28;20031;-72
2022/05/06 04:05:18;;;;;;;17.30;15.48;;;14.30;84.30;;;;;;5054445;28;20522;-72
2022/05/06 04:07:43;;;;;;;16.30;14.60;;;14.30;84.10;;;;;;5054517;28;20029;-72
2022/05/06 04:10:09;;;;;;;18.75;15.88;;;14.30;84.10;;;;;;5054620;28;20360;-72
2022/05/06 04:12:35;;;;;;;22.38;16.75;;;14.30;84.00;;;;;;5054529;28;20025;-72
2022/05/06 04:15:00;;;;;;;18.27;16.38;;;14.30;83.90;;;;;;5054334;28;20021;-72
2022/05/06 04:17:26;;;;;;;16.35;14.65;;;14.20;84.10;;;;;;5054061;28;20029;-72
2022/05/06 04:25:21;;;;;;;17.15;14.68;;;14.20;84.00;;;;;;5054100;28;20056;-72
2022/05/06 04:27:46;;;;;;;16.75;14.75;;;14.20;84.00;;;;;;5053918;28;20025;-72
2022/05/06 04:30:12;;;;;;;16.45;14.68;;;14.20;83.90;;;;;;5053920;28;20125;-72
2022/05/06 04:32:39;;;;;;;16.90;15.02;;;14.20;83.90;;;;;;5053932;28;20427;-72
2022/05/06 04:35:06;;;;;;;17.45;14.88;;;14.30;84.00;;;;;;5054254;28;20021;-72
2022/05/06 04:37:35;;;;;;;16.45;14.48;;;14.20;83.80;;;;;;5053956;28;20060;-72
2022/05/06 04:40:01;;;;;;;15.05;13.32;;;14.20;84.10;;;;;;5054113;28;20032;-72
2022/05/06 04:42:27;;;;;;;15.68;14.02;;;14.10;84.10;;;;;;5053866;28;20029;-72
2022/05/06 04:44:53;;;;;;;16.02;14.10;;;14.10;84.20;;;;;;5053694;28;20024;-72
2022/05/06 04:47:18;;;;;;;17.77;14.55;;;14.20;84.50;;;;;;5053618;28;20045;-72
2022/05/06 04:49:44;;;;;;;16.70;14.70;;;14.10;84.60;;;;;;5053839;28;20102;-72
2022/05/06 04:52:10;;;;;;;17.40;15.48;;;14.20;84.70;;;;;;5053597;28;20135;-72
2022/05/06 04:54:35;;;;;;;14.43;12.90;;;14.10;85.20;;;;;;5053494;28;20032;-72
2022/05/06 04:57:01;;;;;;;19.20;15.63;;;14.10;85.50;;;;;;5053913;28;20033;-72
2022/05/06 04:59:27;;;;;;;16.50;14.60;;;14.10;85.50;;;;;;5053221;28;20031;-72
2022/05/06 05:01:52;;;;;;;19.38;14.55;;;14.10;85.60;;;;;;5053768;28;20055;-73
2022/05/06 05:04:18;;;;;;;17.73;14.23;;;14.10;85.50;;;;;;5053540;28;20473;-73
2022/05/06 05:06:43;;;;;;;21.88;15.77;;;14.10;85.70;;;;;;5053299;28;20124;-73
2022/05/06 05:09:09;;;;;;;21.38;14.57;;;14.10;85.50;;;;;;5053485;28;20028;-73
2022/05/06 05:11:35;;;;;;;18.05;13.38;;;14.10;85.40;;;;;;5053218;28;20412;-73
2022/05/06 05:14:04;;;;;;;14.77;12.52;;;14.10;85.60;;;;;;5053455;28;20021;-73
2022/05/06 05:16:30;;;;;;;19.27;13.90;;;14.10;85.60;;;;;;5053225;28;20086;-73
2022/05/06 05:18:55;;;;;;;14.90;13.18;;;14.10;85.70;;;;;;5053342;28;20467;-73
2022/05/06 05:21:21;;;;;;;16.42;13.38;;;14.10;86.10;;;;;;5053075;28;20028;-73
2022/05/06 05:23:46;;;;;;;17.95;14.70;;;14.10;86.00;;;;;;5052980;28;20050;-73
2022/05/06 05:26:12;;;;;;;16.15;13.85;;;14.10;86.20;;;;;;5052861;28;20060;-73
2022/05/06 05:28:38;;;;;;;17.10;14.25;;;14.00;86.50;;;;;;5052946;28;20105;-73
2022/05/06 05:31:04;;;;;;;16.50;14.32;;;14.10;86.60;;;;;;5053188;28;20029;-73
2022/05/06 05:33:30;;;;;;;15.65;14.02;;;14.10;86.80;;;;;;5053359;28;20029;-73
2022/05/06 05:35:55;;;;;;;22.20;14.55;;;14.00;86.90;;;;;;5052859;28;20025;-73
2022/05/06 05:38:21;;;;;;;16.85;14.80;;;14.00;87.10;;;;;;5052913;28;20018;-73
2022/05/06 05:40:46;;;;;;;17.98;16.08;;;14.00;87.40;;;;;;5052917;28;20037;-73
2022/05/06 05:48:41;;;;;;;14.93;13.20;;;14.10;87.90;;;;;;5053057;28;20025;-73
2022/05/06 05:51:07;;;;;;;18.48;15.57;;;14.10;87.80;;;;;;5052937;28;20033;-73
2022/05/06 05:53:33;;;;;;;19.55;16.70;;;14.20;88.50;;;;;;5053057;28;20021;-73
2022/05/06 05:55:58;;;;;;;22.10;15.50;;;14.10;88.20;;;;;;5052497;28;20028;-73
2022/05/06 05:58:24;;;;;;;16.80;14.85;;;14.10;88.30;;;;;;5052953;28;20029;-73
2022/05/06 06:00:50;;;;;;;18.08;14.98;;;14.10;88.30;;;;;;5052864;28;20075;-73
2022/05/06 06:03:15;;;;;;;17.10;14.40;;;14.10;88.40;;;;;;5052892;28;20023;-73
2022/05/06 06:05:42;;;;;;;17.92;15.32;;;14.10;88.50;;;;;;5052493;28;20468;-73
2022/05/06 06:08:08;;;;;;;16.48;14.55;;;14.20;88.60;;;;;;5056138;28;20017;-73
2022/05/06 06:10:33;;;;;;;20.63;16.15;;;14.20;88.70;;;;;;5056995;28;20416;-73
2022/05/06 06:13:02;;;;;;;28.25;16.65;;;14.20;88.90;;;;;;5056480;28;20074;-73
2022/05/06 06:15:27;;;;;;;22.35;16.92;;;14.20;89.20;;;;;;5056391;28;20021;-73
2022/05/06 06:17:53;;;;;;;30.30;16.58;;;14.20;89.80;;;;;;5056704;28;20070;-73
2022/05/06 06:20:21;;;;;;;20.13;16.00;;;14.10;89.80;;;;;;5056608;28;20372;-73
2022/05/06 06:22:47;;;;;;;28.65;17.13;;;14.10;89.80;;;;;;5056119;28;20025;-73
2022/05/06 06:25:13;;;;;;;17.60;14.70;;;14.10;89.80;;;;;;5056596;28;20060;-73
2022/05/06 06:27:39;;;;;;;18.73;15.65;;;14.10;90.00;;;;;;5056084;28;20048;-73
2022/05/06 06:30:05;;;;;;;20.27;15.98;;;14.10;90.00;;;;;;5056362;28;20028;-73
2022/05/06 06:32:30;;;;;;;21.40;17.80;;;14.10;90.10;;;;;;5055932;28;20021;-73
2022/05/06 06:34:56;;;;;;;18.88;15.32;;;14.10;90.40;;;;;;5056510;28;20412;-73
2022/05/06 06:37:24;;;;;;;19.10;16.67;;;14.00;90.30;;;;;;5055969;28;20025;-71
2022/05/06 06:39:50;;;;;;;24.42;19.42;;;14.10;90.70;;;;;;5056188;28;20017;-74
2022/05/06 06:42:15;;;;;;;23.02;18.40;;;14.00;90.90;;;;;;5055890;28;20116;-72
2022/05/06 06:44:41;;;;;;;23.85;18.80;;;13.90;91.00;;;;;;5056084;28;20021;-72
2022/05/06 06:47:09;;;;;;;21.95;18.42;;;14.00;91.20;;;;;;5055869;28;20049;-72
2022/05/06 06:49:34;;;;;;;24.45;18.73;;;13.90;91.40;;;;;;5055876;28;20048;-72
2022/05/06 06:52:00;;;;;;;20.73;17.90;;;14.00;91.70;;;;;;5055796;28;20484;-72
2022/05/06 06:54:25;;;;;;;23.60;19.13;;;14.00;91.70;;;;;;5055936;28;20075;-72
2022/05/06 06:56:51;;;;;;;20.73;18.20;;;14.10;91.80;;;;;;5055800;28;20071;-72
2022/05/06 06:59:16;;;;;;;26.30;21.10;;;14.10;92.00;;;;;;5055716;28;20029;-72
2022/05/06 07:01:42;;;;;;;26.58;20.08;;;14.10;92.20;;;;;;5055791;28;20033;-72
2022/05/06 07:04:08;;;;;;;23.52;18.50;;;14.10;92.30;;;;;;5055966;28;20029;-72
2022/05/06 07:12:02;;;;;;;26.55;20.95;;;14.20;93.00;;;;;;5055865;28;20044;-72
2022/05/06 07:14:28;;;;;;;28.40;21.25;;;14.20;93.10;;;;;;5055743;28;20021;-72
2022/05/06 07:16:54;;;;;;;28.02;21.67;;;14.20;93.20;;;;;;5055596;28;20033;-72
2022/05/06 07:19:21;;;;;;;29.67;22.13;;;14.20;93.30;;;;;;5055079;28;20029;-72
2022/05/06 07:21:49;;;;;;;31.67;23.67;;;14.30;93.40;;;;;;5055215;28;20029;-72
2022/05/06 07:24:16;;;;;;;33.40;25.00;;;14.30;93.50;;;;;;5055505;28;20029;-72
2022/05/06 07:26:41;;;;;;;34.65;25.60;;;14.30;93.70;;;;;;5055604;28;20044;-72
2022/05/06 07:29:07;;;;;;;26.13;21.08;;;14.30;93.90;;;;;;5055451;28;20453;-72
2022/05/06 07:31:32;;;;;;;30.80;21.50;;;14.30;93.90;;;;;;5055092;28;20179;-72
2022/05/06 07:33:58;;;;;;;32.63;24.25;;;14.40;94.00;;;;;;5054804;28;20111;-72
2022/05/06 07:36:24;;;;;;;30.42;23.33;;;14.50;94.20;;;;;;5054933;28;20025;-72
2022/05/06 07:38:50;;;;;;;35.70;25.38;;;14.50;94.10;;;;;;5055144;28;20024;-72
2022/05/06 07:41:16;;;;;;;34.03;24.88;;;14.50;94.20;;;;;;5054996;28;20033;-72
2022/05/06 07:43:42;;;;;;;33.83;24.90;;;14.50;94.30;;;;;;5055180;28;20044;-72
2022/05/06 07:46:09;;;;;;;35.47;25.75;;;14.40;94.30;;;;;;5054484;28;20095;-72
2022/05/06 07:48:38;;;;;;;33.40;23.67;;;14.40;94.40;;;;;;5055028;28;20083;-72
2022/05/06 07:51:05;;;;;;;30.17;23.00;;;14.50;94.50;;;;;;5054534;28;20076;-72
2022/05/06 07:53:30;;;;;;;29.88;22.65;;;14.50;94.50;;;;;;5054686;28;20472;-72
2022/05/06 07:55:56;;;;;;;29.92;22.30;;;14.60;94.50;;;;;;5054670;28;20029;-72
2022/05/06 07:58:21;;;;;;;27.70;21.63;;;14.70;94.60;;;;;;5054642;28;20457;-72
2022/05/06 08:00:47;;;;;;;30.83;23.27;;;14.70;94.60;;;;;;5054438;28;20104;-72
2022/05/06 08:05:57;;;;;;;27.98;21.50;;;14.90;94.70;;;;;;5054535;28;20440;-72
2022/05/06 08:08:27;;;;;;;25.85;19.90;;;15.00;94.50;;;;;;5054663;28;20037;-73
2022/05/06 08:10:53;;;;;;;27.83;21.55;;;15.10;94.40;;;;;;5054123;28;20047;-73
2022/05/06 08:13:19;;;;;;;24.20;18.85;;;15.30;94.50;;;;;;5054251;28;20453;-73
2022/05/06 08:15:46;;;;;;;29.83;19.60;;;15.40;94.00;;;;;;5054418;28;20025;-73
2022/05/06 08:18:11;;;;;;;25.95;19.55;;;15.50;93.90;;;;;;5054313;28;20045;-73
2022/05/06 08:20:39;;;;;;;27.15;19.20;;;15.60;93.60;;;;;;5054184;28;20032;-73
2022/05/06 08:23:06;;;;;;;26.73;19.52;;;15.90;93.80;;;;;;5054246;28;20021;-73
2022/05/06 08:25:32;;;;;;;26.08;18.58;;;16.00;94.10;;;;;;5054390;28;20029;-73
2022/05/06 08:27:57;;;;;;;24.15;18.17;;;16.10;93.60;;;;;;5054065;28;20021;-73
2022/05/06 08:30:23;;;;;;;23.55;16.27;;;16.20;93.20;;;;;;5053074;28;20048;-73
2022/05/06 08:32:51;;;;;;;22.08;18.02;;;16.30;92.90;;;;;;5053781;28;20036;-73
2022/05/06 08:35:17;;;;;;;19.17;15.90;;;16.50;93.00;;;;;;5053652;28;20039;-73
2022/05/06 08:37:44;;;;;;;18.80;15.23;;;16.70;93.00;;;;;;5053886;28;20029;-73
2022/05/06 08:40:17;;;;;;;17.67;14.73;;;16.80;92.10;;;;;;5053909;28;20029;-73
2022/05/06 08:42:44;;;;;;;17.73;14.55;;;16.80;91.40;;;;;;5053968;28;20029;-73
2022/05/06 08:50:51;;;;;;;16.20;12.80;;;17.10;91.90;;;;;;5053654;28;20056;-73
2022/05/06 08:53:17;;;;;;;15.20;12.88;;;17.20;91.40;;;;;;5053530;28;20021;-74
2022/05/06 08:55:43;;;;;;;16.60;13.50;;;17.40;91.00;;;;;;5053845;28;20036;-73
2022/05/06 08:58:09;;;;;;;13.75;12.05;;;17.40;90.50;;;;;;5053416;28;20070;-73
2022/05/06 09:00:35;;;;;;;17.10;13.02;;;17.40;90.60;;;;;;5053113;28;20035;-73
2022/05/06 09:03:00;;;;;;;15.80;13.43;;;17.60;90.90;;;;;;5053750;28;20079;-73
2022/05/06 09:05:26;;;;;;;13.25;11.52;;;17.70;90.70;;;;;;5053368;28;20104;-73
2022/05/06 09:08:00;;;;;;;13.75;12.15;;;17.70;90.10;;;;;;5053258;28;20447;-73
2022/05/06 09:10:26;;;;;;;14.30;12.05;;;17.80;89.70;;;;;;5053236;28;20028;-73
2022/05/06 09:12:56;;;;;;;12.70;10.77;;;17.90;89.30;;;;;;5053173;28;20029;-73
2022/05/06 09:18:08;;;;;;;14.30;11.60;;;18.00;89.10;;;;;;5053453;28;20063;-73
2022/05/06 09:20:34;;;;;;;13.10;11.77;;;18.10;88.50;;;;;;5053254;28;20052;-74
2022/05/06 09:23:25;;;;;;;12.73;10.57;;;18.20;88.80;;;;;;5053389;28;20139;-73
2022/05/06 09:25:53;;;;;;;17.10;11.65;;;18.20;88.00;;;;;;5053119;28;20021;-74
2022/05/06 09:28:27;;;;;;;13.45;10.90;;;18.30;87.80;;;;;;5053175;28;20060;-71
2022/05/06 09:31:04;;;;;;;14.93;12.60;;;18.30;87.70;;;;;;5052926;28;20025;-72
2022/05/06 09:33:40;;;;;;;14.88;12.25;;;18.50;88.00;;;;;;5052918;28;20056;-72
2022/05/06 09:36:30;;;;;;;12.95;11.43;;;18.60;89.00;;;;;;5053610;28;20029;-72
2022/05/06 09:39:07;;;;;;;12.05;10.75;;;18.70;87.40;;;;;;5052903;28;20053;-73
2022/05/06 09:41:33;;;;;;;15.07;10.98;;;18.90;86.80;;;;;;5053912;28;20029;-73
2022/05/06 09:44:03;;;;;;;13.05;10.38;;;18.90;86.10;;;;;;5057062;28;20094;-73
2022/05/06 09:46:29;;;;;;;12.20;10.40;;;19.00;85.40;;;;;;5057011;28;20187;-73
2022/05/06 09:48:56;;;;;;;12.70;9.75;;;19.10;85.40;;;;;;5057244;28;20104;-72
2022/05/06 09:51:26;;;;;;;10.50;9.25;;;19.10;84.80;;;;;;5056689;28;20037;-72
2022/05/06 09:53:53;;;;;;;10.70;9.60;;;19.10;84.80;;;;;;5057081;28;20017;-73
2022/05/06 09:56:20;;;;;;;10.68;9.68;;;19.30;84.80;;;;;;5056900;28;20107;-72
2022/05/06 09:58:46;;;;;;;11.82;8.95;;;19.40;84.30;;;;;;5056792;28;20380;-72
2022/05/06 10:01:13;;;;;;;11.82;8.98;;;19.50;84.30;;;;;;5056869;28;20468;-73
2022/05/06 10:03:39;;;;;;;8.85;8.05;;;19.70;83.70;;;;;;5056551;28;20434;-72
2022/05/06 10:06:09;;;;;;;12.30;8.23;;;19.80;82.20;;;;;;5056653;28;20028;-72
2022/05/06 10:08:48;;;;;;;10.77;8.88;;;19.90;81.90;;;;;;5056696;28;20025;-73
2022/05/06 10:11:18;;;;;;;9.60;8.63;;;20.00;81.60;;;;;;5056709;28;20082;-72
2022/05/06 10:13:46;;;;;;;9.20;8.00;;;20.00;80.50;;;;;;5056480;28;20017;-72
2022/05/06 10:16:12;;;;;;;8.57;7.75;;;20.10;80.70;;;;;;5056371;28;20499;-73
2022/05/06 10:18:39;;;;;;;9.10;8.20;;;20.10;80.10;;;;;;5056460;28;20029;-73
2022/05/06 10:21:06;;;;;;;8.75;7.90;;;20.20;79.60;;;;;;5056358;28;20029;-73
2022/05/06 10:23:51;;;;;;;11.35;7.97;;;20.20;79.60;;;;;;5056057;28;20117;-73
2022/05/06 10:26:42;;;;;;;10.13;7.85;;;20.30;79.50;;;;;;5056412;28;20021;-73
2022/05/06 10:32:25;;;;;;;13.32;7.22;;;20.60;78.40;;;;;;5056316;28;20130;-73
2022/05/06 10:35:02;;;;;;;8.55;7.75;;;20.70;78.40;;;;;;5056385;28;20025;-72
2022/05/06 10:37:39;;;;;;;7.38;6.68;;;20.80;77.80;;;;;;5055775;28;20032;-73
2022/05/06 10:40:23;;;;;;;6.75;6.05;;;20.90;77.10;;;;;;5056208;28;20055;-73
2022/05/06 10:42:49;;;;;;;6.50;5.90;;;21.00;77.00;;;;;;5056107;28;20025;-73
2022/05/06 10:45:31;;;;;;;9.80;6.93;;;21.10;76.80;;;;;;5055810;28;20032;-73
2022/05/06 10:47:57;;;;;;;7.22;5.20;;;21.20;74.90;;;;;;5056321;28;20100;-73
2022/05/06 10:50:25;;;;;;;5.65;5.15;;;21.30;73.50;;;;;;5055848;28;20055;-73
2022/05/06 10:52:51;;;;;;;5.95;4.45;;;21.40;73.90;;;;;;5055631;28;20105;-73
2022/05/06 10:55:19;;;;;;;6.38;5.43;;;21.50;72.60;;;;;;5055921;28;20017;-73
2022/05/06 10:57:56;;;;;;;4.72;4.30;;;21.50;71.50;;;;;;5055789;28;20108;-73
2022/05/06 11:00:23;;;;;;;4.75;4.20;;;21.50;71.00;;;;;;5055968;28;20028;-73
2022/05/06 11:02:50;;;;;;;4.43;4.00;;;21.50;70.70;;;;;;5055620;28;20037;-73
2022/05/06 11:05:18;;;;;;;5.53;4.35;;;21.60;70.50;;;;;;5055406;28;20043;-73
2022/05/06 11:07:49;;;;;;;4.20;3.80;;;21.60;69.90;;;;;;5055635;28;20025;-73
2022/05/06 11:10:22;;;;;;;4.40;4.00;;;21.60;69.80;;;;;;5055645;28;20021;-73
2022/05/06 11:12:59;;;;;;;4.53;4.13;;;21.70;69.50;;;;;;5055813;28;20032;-74
2022/05/06 11:15:27;;;;;;;4.57;3.95;;;21.80;70.80;;;;;;5055680;28;20029;-73
2022/05/06 11:17:56;;;;;;;4.82;3.92;;;21.90;69.80;;;;;;5055052;28;20050;-73
2022/05/06 11:20:31;;;;;;;4.40;3.45;;;21.90;68.70;;;;;;5055347;28;20104;-73
2022/05/06 11:23:06;;;;;;;4.80;3.60;;;21.90;68.20;;;;;;5055176;28;20032;-74
2022/05/06 11:25:33;;;;;;;4.00;3.60;;;21.90;68.00;;;;;;5055404;28;20386;-73
2022/05/06 11:28:00;;;;;;;4.95;4.45;;;22.00;67.50;;;;;;5055052;28;20029;-73
2022/05/06 11:30:29;;;;;;;4.93;3.75;;;22.00;67.40;;;;;;5055114;28;20037;-73
2022/05/06 11:32:57;;;;;;;4.80;3.53;;;21.90;67.50;;;;;;5055091;28;20439;-73
2022/05/06 11:35:46;;;;;;;3.50;3.20;;;21.90;67.00;;;;;;5055035;28;20523;-73
2022/05/06 11:38:11;;;;;;;3.90;2.90;;;22.10;66.80;;;;;;5055013;28;20040;-73
2022/05/06 11:40:38;;;;;;;3.60;2.90;;;22.00;65.90;;;;;;5054634;28;20025;-73
2022/05/06 11:43:18;;;;;;;5.80;3.38;;;22.10;65.50;;;;;;5055228;28;20122;-73
2022/05/06 11:48:46;;;;;;;7.22;2.60;;;22.20;64.60;;;;;;5055029;28;20024;-73
2022/05/06 11:51:20;;;;;;;3.50;2.80;;;22.40;65.00;;;;;;5054780;28;20036;-74
2022/05/06 11:53:46;;;;;;;3.30;2.28;;;22.60;64.20;;;;;;5054590;28;20096;-74
2022/05/06 11:56:12;;;;;;;3.50;2.65;;;22.60;63.20;;;;;;5054637;28;20033;-73
2022/05/06 11:58:38;;;;;;;3.90;3.10;;;22.60;62.50;;;;;;5054612;28;20126;-74
2022/05/06 12:01:04;;;;;;;3.40;3.10;;;22.70;62.70;;;;;;5054579;28;20033;-73
2022/05/06 12:03:30;;;;;;;3.80;3.08;;;22.70;62.80;;;;;;5054525;28;20032;-73
2022/05/06 12:06:04;;;;;;;4.07;3.33;;;22.80;61.80;;;;;;5053744;28;20027;-73
2022/05/06 12:08:32;;;;;;;4.05;3.65;;;22.70;61.70;;;;;;5054692;28;20032;-73
2022/05/06 12:10:59;;;;;;;4.75;3.40;;;22.60;62.20;;;;;;5054317;28;20392;-74
2022/05/06 12:13:31;;;;;;;3.75;3.45;;;22.60;62.10;;;;;;5054196;28;20051;-73
2022/05/06 12:16:11;;;;;;;4.05;3.63;;;22.60;62.30;;;;;;5053946;28;20032;-74
2022/05/06 12:18:37;;;;;;;4.85;3.30;;;22.70;62.40;;;;;;5034112;28;20024;-75
2022/05/06 12:21:19;;;;;;;6.70;3.47;;;22.60;62.30;;;;;;5034069;28;20116;-73
2022/05/06 12:23:58;;;;;;;4.20;3.25;;;22.70;61.80;;;;;;5034096;28;20120;-73
2022/05/06 12:26:27;;;;;;;3.78;3.47;;;22.80;62.20;;;;;;5034264;28;20036;-74
2022/05/06 12:28:52;;;;;;;3.50;2.65;;;22.80;61.40;;;;;;5033981;28;20385;-74
2022/05/06 12:31:29;;;;;;;4.65;2.78;;;22.80;60.70;;;;;;5033842;28;20033;-73
2022/05/06 12:34:03;;;;;;;4.10;3.08;;;22.90;61.10;;;;;;5034322;28;20025;-73
2022/05/06 12:36:29;;;;;;;4.47;3.10;;;22.90;61.10;;;;;;5034202;28;20030;-73
2022/05/06 12:38:54;;;;;;;3.78;2.92;;;23.00;60.50;;;;;;5034231;28;20100;-73
2022/05/06 12:41:32;;;;;;;4.85;2.65;;;23.10;59.70;;;;;;5034116;28;20485;-73
2022/05/06 12:44:24;;;;;;;4.25;2.85;;;23.10;59.20;;;;;;5033626;28;20028;-73
2022/05/06 12:46:50;;;;;;;;;;;23.10;58.80;;;;;;5034087;28;20045;-74
2022/05/06 12:52:04;;;;;;;4.57;2.72;;;23.10;58.30;;;;;;5033744;28;20044;-74
2022/05/06 12:54:30;;;;;;;5.13;2.70;;;23.10;57.80;;;;;;5033583;28;20117;-73
2022/05/06 12:56:57;;;;;;;3.10;2.40;;;23.20;57.70;;;;;;5033900;28;20107;-74
2022/05/06 12:59:23;;;;;;;2.90;2.60;;;23.20;57.90;;;;;;5033586;28;20046;-73
2022/05/06 13:01:50;;;;;;;3.47;2.58;;;23.30;57.70;;;;;;5033672;28;20418;-73
2022/05/06 13:04:15;;;;;;;3.50;3.08;;;23.30;56.80;;;;;;5033456;28;20108;-73
2022/05/06 13:06:41;;;;;;;2.88;2.40;;;23.30;56.60;;;;;;5033399;28;20060;-73
2022/05/06 13:09:07;;;;;;;4.93;3.00;;;23.30;56.80;;;;;;5033377;28;20057;-74
2022/05/06 13:11:32;;;;;;;3.47;3.17;;;23.30;57.00;;;;;;5033325;28;20045;-74
2022/05/06 13:13:59;;;;;;;4.65;3.20;;;23.40;56.80;;;;;;5033363;28;20021;-74
2022/05/06 13:16:25;;;;;;;6.18;4.05;;;23.50;58.50;;;;;;5033315;28;20034;-74
2022/05/06 13:18:52;;;;;;;6.80;4.10;;;23.60;57.30;;;;;;5033274;28;20025;-74
2022/05/06 13:21:18;;;;;;;8.05;4.20;;;23.70;57.00;;;;;;5033111;28;20036;-74